sensor_id;sensor_type;location;lat;lon;timestamp;temperature;humidity
33715;DHT22;20043;50.998;4.754;2022-07-29T00:00:41;21.10;99.90
33715;DHT22;20043;50.998;4.754;2022-07-29T00:03:12;21.00;99.90
33715;DHT22;20043;50.998;4.754;2022-07-29T00:05:40;21.00;99.90
33715;DHT22;20043;50.998;4.754;2022-07-29T00:08:06;21.20;99.90
33715;DHT22;20043;50.998;4.754;2022-07-29T00:10:32;21.20;99.90
33715;DHT22;20043;50.998;4.754;2022-07-29T00:12:58;21.10;99.90
33715;DHT22;20043;50.998;4.754;2022-07-29T00:15:24;21.10;99.90
33715;DHT22;20043;50.998;4.754;2022-07-29T00:17:49;21.00;99.90
33715;DHT22;20043;50.998;4.754;2022-07-29T00:20:15;20.90;99.90
33715;DHT22;20043;50.998;4.754;2022-07-29T00:22:41;20.80;99.90
33715;DHT22;20043;50.998;4.754;2022-07-29T00:25:07;20.80;99.90
33715;DHT22;20043;50.998;4.754;2022-07-29T00:27:33;20.80;99.90
33715;DHT22;20043;50.998;4.754;2022-07-29T00:29:59;20.80;99.90
33715;DHT22;20043;50.998;4.754;2022-07-29T00:32:25;20.70;99.90
33715;DHT22;20043;50.998;4.754;2022-07-29T00:34:50;20.70;99.90
33715;DHT22;20043;50.998;4.754;2022-07-29T00:37:34;20.70;99.90
33715;DHT22;20043;50.998;4.754;2022-07-29T00:40:00;20.50;99.90
33715;DHT22;20043;50.998;4.754;2022-07-29T00:42:25;20.50;99.90
33715;DHT22;20043;50.998;4.754;2022-07-29T00:44:51;20.50;99.90
33715;DHT22;20043;50.998;4.754;2022-07-29T00:47:17;20.50;99.90
33715;DHT22;20043;50.998;4.754;2022-07-29T00:49:42;20.50;99.90
33715;DHT22;20043;50.998;4.754;2022-07-29T00:52:10;20.50;99.90
33715;DHT22;20043;50.998;4.754;2022-07-29T00:54:38;20.50;99.90
33715;DHT22;20043;50.998;4.754;2022-07-29T00:57:06;20.40;99.90
33715;DHT22;20043;50.998;4.754;2022-07-29T00:59:33;20.40;99.90
33715;DHT22;20043;50.998;4.754;2022-07-29T01:01:59;20.30;99.90
33715;DHT22;20043;50.998;4.754;2022-07-29T01:04:25;20.20;99.90
33715;DHT22;20043;50.998;4.754;2022-07-29T01:06:52;20.30;99.90
33715;DHT22;20043;50.998;4.754;2022-07-29T01:09:19;20.10;99.90
33715;DHT22;20043;50.998;4.754;2022-07-29T01:11:45;19.90;99.90
33715;DHT22;20043;50.998;4.754;2022-07-29T01:14:13;19.70;99.90
33715;DHT22;20043;50.998;4.754;2022-07-29T01:16:49;19.40;99.90
33715;DHT22;20043;50.998;4.754;2022-07-29T01:21:53;19.60;99.90
33715;DHT22;20043;50.998;4.754;2022-07-29T01:29:57;19.30;99.90
33715;DHT22;20043;50.998;4.754;2022-07-29T01:32:30;19.40;99.90
33715;DHT22;20043;50.998;4.754;2022-07-29T01:40:34;19.70;99.90
33715;DHT22;20043;50.998;4.754;2022-07-29T01:43:09;19.60;99.90
33715;DHT22;20043;50.998;4.754;2022-07-29T01:45:52;19.60;99.90
33715;DHT22;20043;50.998;4.754;2022-07-29T01:48:23;19.70;99.90
33715;DHT22;20043;50.998;4.754;2022-07-29T01:50:50;19.60;99.90
33715;DHT22;20043;50.998;4.754;2022-07-29T01:53:34;19.70;99.90
33715;DHT22;20043;50.998;4.754;2022-07-29T01:56:02;19.70;99.90
33715;DHT22;20043;50.998;4.754;2022-07-29T01:58:29;19.70;99.90
33715;DHT22;20043;50.998;4.754;2022-07-29T02:00:57;19.50;99.90
33715;DHT22;20043;50.998;4.754;2022-07-29T02:03:24;19.40;99.90
33715;DHT22;20043;50.998;4.754;2022-07-29T02:05:52;19.40;99.90
33715;DHT22;20043;50.998;4.754;2022-07-29T02:08:19;19.40;99.90
33715;DHT22;20043;50.998;4.754;2022-07-29T02:10:47;19.30;99.90
33715;DHT22;20043;50.998;4.754;2022-07-29T02:13:15;19.30;99.90
33715;DHT22;20043;50.998;4.754;2022-07-29T02:15:42;19.30;99.90
33715;DHT22;20043;50.998;4.754;2022-07-29T02:18:15;19.30;99.90
33715;DHT22;20043;50.998;4.754;2022-07-29T02:20:45;19.30;99.90
33715;DHT22;20043;50.998;4.754;2022-07-29T02:23:12;19.40;99.90
33715;DHT22;20043;50.998;4.754;2022-07-29T02:25:41;19.40;99.90
33715;DHT22;20043;50.998;4.754;2022-07-29T02:28:08;19.30;99.90
33715;DHT22;20043;50.998;4.754;2022-07-29T02:30:37;19.30;99.90
33715;DHT22;20043;50.998;4.754;2022-07-29T02:33:05;19.30;99.90
33715;DHT22;20043;50.998;4.754;2022-07-29T02:35:31;19.20;99.90
33715;DHT22;20043;50.998;4.754;2022-07-29T02:37:57;19.20;99.90
33715;DHT22;20043;50.998;4.754;2022-07-29T02:40:42;19.10;99.90
33715;DHT22;20043;50.998;4.754;2022-07-29T02:43:09;18.90;99.90
33715;DHT22;20043;50.998;4.754;2022-07-29T02:45:35;18.80;99.90
33715;DHT22;20043;50.998;4.754;2022-07-29T02:48:06;18.90;99.90
33715;DHT22;20043;50.998;4.754;2022-07-29T02:50:37;18.80;99.90
33715;DHT22;20043;50.998;4.754;2022-07-29T02:53:19;18.90;99.90
33715;DHT22;20043;50.998;4.754;2022-07-29T02:55:51;18.80;99.90
33715;DHT22;20043;50.998;4.754;2022-07-29T02:58:28;18.90;99.90
33715;DHT22;20043;50.998;4.754;2022-07-29T03:01:03;18.80;99.90
33715;DHT22;20043;50.998;4.754;2022-07-29T03:03:37;18.80;99.90
33715;DHT22;20043;50.998;4.754;2022-07-29T03:06:04;18.60;99.90
33715;DHT22;20043;50.998;4.754;2022-07-29T03:08:31;18.60;99.90
33715;DHT22;20043;50.998;4.754;2022-07-29T03:10:58;18.60;99.90
33715;DHT22;20043;50.998;4.754;2022-07-29T03:13:24;18.70;99.90
33715;DHT22;20043;50.998;4.754;2022-07-29T03:15:50;18.60;99.90
33715;DHT22;20043;50.998;4.754;2022-07-29T03:18:17;18.50;99.90
33715;DHT22;20043;50.998;4.754;2022-07-29T03:20:43;18.40;99.90
33715;DHT22;20043;50.998;4.754;2022-07-29T03:23:09;18.50;99.90
33715;DHT22;20043;50.998;4.754;2022-07-29T03:25:34;18.40;99.90
33715;DHT22;20043;50.998;4.754;2022-07-29T03:28:00;18.30;99.90
33715;DHT22;20043;50.998;4.754;2022-07-29T03:30:26;18.30;99.90
33715;DHT22;20043;50.998;4.754;2022-07-29T03:32:53;18.30;99.90
33715;DHT22;20043;50.998;4.754;2022-07-29T03:35:22;18.20;99.90
33715;DHT22;20043;50.998;4.754;2022-07-29T03:37:48;18.10;99.90
33715;DHT22;20043;50.998;4.754;2022-07-29T03:40:18;18.10;99.90
33715;DHT22;20043;50.998;4.754;2022-07-29T03:42:45;17.90;99.90
33715;DHT22;20043;50.998;4.754;2022-07-29T03:45:16;17.90;99.90
33715;DHT22;20043;50.998;4.754;2022-07-29T03:47:47;18.00;99.90
33715;DHT22;20043;50.998;4.754;2022-07-29T03:50:14;17.90;99.90
33715;DHT22;20043;50.998;4.754;2022-07-29T03:52:40;18.00;99.90
33715;DHT22;20043;50.998;4.754;2022-07-29T03:55:07;18.10;99.90
33715;DHT22;20043;50.998;4.754;2022-07-29T03:57:35;17.80;99.90
33715;DHT22;20043;50.998;4.754;2022-07-29T04:00:02;17.80;99.90
33715;DHT22;20043;50.998;4.754;2022-07-29T04:02:28;17.80;99.90
33715;DHT22;20043;50.998;4.754;2022-07-29T04:04:54;17.60;99.90
33715;DHT22;20043;50.998;4.754;2022-07-29T04:07:20;17.50;99.90
33715;DHT22;20043;50.998;4.754;2022-07-29T04:09:46;17.50;99.90
33715;DHT22;20043;50.998;4.754;2022-07-29T04:12:11;17.50;99.90
33715;DHT22;20043;50.998;4.754;2022-07-29T04:14:37;17.50;99.90
33715;DHT22;20043;50.998;4.754;2022-07-29T04:17:04;17.50;99.90
33715;DHT22;20043;50.998;4.754;2022-07-29T04:19:30;17.50;99.90
33715;DHT22;20043;50.998;4.754;2022-07-29T04:21:57;17.40;99.90
33715;DHT22;20043;50.998;4.754;2022-07-29T04:24:23;17.20;99.90
33715;DHT22;20043;50.998;4.754;2022-07-29T04:26:49;17.20;99.90
33715;DHT22;20043;50.998;4.754;2022-07-29T04:29:14;17.20;99.90
33715;DHT22;20043;50.998;4.754;2022-07-29T04:31:41;17.20;99.90
33715;DHT22;20043;50.998;4.754;2022-07-29T04:34:07;17.30;99.90
33715;DHT22;20043;50.998;4.754;2022-07-29T04:36:33;17.20;99.90
33715;DHT22;20043;50.998;4.754;2022-07-29T04:38:58;17.20;99.90
33715;DHT22;20043;50.998;4.754;2022-07-29T04:41:24;17.20;99.90
33715;DHT22;20043;50.998;4.754;2022-07-29T04:43:50;17.10;99.90
33715;DHT22;20043;50.998;4.754;2022-07-29T04:46:15;17.00;99.90
33715;DHT22;20043;50.998;4.754;2022-07-29T04:48:41;17.10;99.90
33715;DHT22;20043;50.998;4.754;2022-07-29T04:51:07;17.30;99.90
33715;DHT22;20043;50.998;4.754;2022-07-29T04:53:32;17.20;99.90
33715;DHT22;20043;50.998;4.754;2022-07-29T04:55:58;17.20;99.90
33715;DHT22;20043;50.998;4.754;2022-07-29T04:58:23;17.20;99.90
33715;DHT22;20043;50.998;4.754;2022-07-29T05:00:50;17.20;99.90
33715;DHT22;20043;50.998;4.754;2022-07-29T05:03:16;17.20;99.90
33715;DHT22;20043;50.998;4.754;2022-07-29T05:05:41;17.20;99.90
33715;DHT22;20043;50.998;4.754;2022-07-29T05:08:08;17.30;99.90
33715;DHT22;20043;50.998;4.754;2022-07-29T05:10:34;17.40;99.90
33715;DHT22;20043;50.998;4.754;2022-07-29T05:13:04;17.60;99.90
33715;DHT22;20043;50.998;4.754;2022-07-29T05:15:30;18.00;99.90
33715;DHT22;20043;50.998;4.754;2022-07-29T05:17:56;18.40;99.90
33715;DHT22;20043;50.998;4.754;2022-07-29T05:20:22;18.80;99.90
33715;DHT22;20043;50.998;4.754;2022-07-29T05:22:51;19.20;99.90
33715;DHT22;20043;50.998;4.754;2022-07-29T05:25:17;19.70;99.90
33715;DHT22;20043;50.998;4.754;2022-07-29T05:27:43;20.10;99.90
33715;DHT22;20043;50.998;4.754;2022-07-29T05:30:09;20.50;99.90
33715;DHT22;20043;50.998;4.754;2022-07-29T05:32:35;20.90;99.90
33715;DHT22;20043;50.998;4.754;2022-07-29T05:35:00;21.20;99.90
33715;DHT22;20043;50.998;4.754;2022-07-29T05:37:26;21.40;99.90
33715;DHT22;20043;50.998;4.754;2022-07-29T05:39:51;21.60;99.90
33715;DHT22;20043;50.998;4.754;2022-07-29T05:42:17;21.90;99.90
33715;DHT22;20043;50.998;4.754;2022-07-29T05:44:43;22.10;99.90
33715;DHT22;20043;50.998;4.754;2022-07-29T05:47:08;22.50;99.90
33715;DHT22;20043;50.998;4.754;2022-07-29T05:49:34;22.90;99.90
33715;DHT22;20043;50.998;4.754;2022-07-29T05:51:59;23.30;99.90
33715;DHT22;20043;50.998;4.754;2022-07-29T05:54:25;23.60;99.90
33715;DHT22;20043;50.998;4.754;2022-07-29T05:56:51;23.90;99.90
33715;DHT22;20043;50.998;4.754;2022-07-29T05:59:17;24.30;99.90
33715;DHT22;20043;50.998;4.754;2022-07-29T06:01:42;24.50;99.90
33715;DHT22;20043;50.998;4.754;2022-07-29T06:04:08;24.50;99.90
33715;DHT22;20043;50.998;4.754;2022-07-29T06:06:34;24.30;99.30
33715;DHT22;20043;50.998;4.754;2022-07-29T06:09:01;24.10;99.40
33715;DHT22;20043;50.998;4.754;2022-07-29T06:11:27;23.90;99.80
33715;DHT22;20043;50.998;4.754;2022-07-29T06:13:53;23.60;99.90
33715;DHT22;20043;50.998;4.754;2022-07-29T06:16:19;23.30;99.90
33715;DHT22;20043;50.998;4.754;2022-07-29T06:18:44;23.20;99.90
33715;DHT22;20043;50.998;4.754;2022-07-29T06:21:10;23.40;99.90
33715;DHT22;20043;50.998;4.754;2022-07-29T06:23:39;23.60;99.90
33715;DHT22;20043;50.998;4.754;2022-07-29T06:26:05;23.60;99.90
33715;DHT22;20043;50.998;4.754;2022-07-29T06:28:32;23.70;99.90
33715;DHT22;20043;50.998;4.754;2022-07-29T06:30:58;23.90;99.90
33715;DHT22;20043;50.998;4.754;2022-07-29T06:33:24;24.20;99.20
33715;DHT22;20043;50.998;4.754;2022-07-29T06:35:49;24.30;99.30
33715;DHT22;20043;50.998;4.754;2022-07-29T06:38:15;24.30;99.10
33715;DHT22;20043;50.998;4.754;2022-07-29T06:40:47;24.30;99.30
33715;DHT22;20043;50.998;4.754;2022-07-29T06:43:30;24.60;99.80
33715;DHT22;20043;50.998;4.754;2022-07-29T06:46:01;24.80;99.00
33715;DHT22;20043;50.998;4.754;2022-07-29T06:48:28;24.80;98.80
33715;DHT22;20043;50.998;4.754;2022-07-29T06:50:54;24.90;98.10
33715;DHT22;20043;50.998;4.754;2022-07-29T06:53:20;25.10;98.00
33715;DHT22;20043;50.998;4.754;2022-07-29T06:55:45;25.20;98.00
33715;DHT22;20043;50.998;4.754;2022-07-29T06:58:11;25.40;98.20
33715;DHT22;20043;50.998;4.754;2022-07-29T07:00:37;25.60;97.90
33715;DHT22;20043;50.998;4.754;2022-07-29T07:03:03;25.30;98.40
33715;DHT22;20043;50.998;4.754;2022-07-29T07:05:28;25.40;98.30
33715;DHT22;20043;50.998;4.754;2022-07-29T07:07:54;25.30;98.20
33715;DHT22;20043;50.998;4.754;2022-07-29T07:10:19;24.90;98.30
33715;DHT22;20043;50.998;4.754;2022-07-29T07:12:45;25.00;98.60
33715;DHT22;20043;50.998;4.754;2022-07-29T07:15:10;25.10;98.60
33715;DHT22;20043;50.998;4.754;2022-07-29T07:17:36;25.00;98.40
33715;DHT22;20043;50.998;4.754;2022-07-29T07:20:04;24.60;98.50
33715;DHT22;20043;50.998;4.754;2022-07-29T07:22:30;24.40;99.10
33715;DHT22;20043;50.998;4.754;2022-07-29T07:24:56;24.20;99.70
33715;DHT22;20043;50.998;4.754;2022-07-29T07:27:21;24.00;99.90
33715;DHT22;20043;50.998;4.754;2022-07-29T07:29:47;23.90;99.90
33715;DHT22;20043;50.998;4.754;2022-07-29T07:32:12;24.00;99.90
33715;DHT22;20043;50.998;4.754;2022-07-29T07:34:38;24.10;99.90
33715;DHT22;20043;50.998;4.754;2022-07-29T07:37:05;24.20;99.80
33715;DHT22;20043;50.998;4.754;2022-07-29T07:39:30;24.20;99.90
33715;DHT22;20043;50.998;4.754;2022-07-29T07:41:56;24.30;99.80
33715;DHT22;20043;50.998;4.754;2022-07-29T07:44:21;24.20;99.90
33715;DHT22;20043;50.998;4.754;2022-07-29T07:46:47;24.10;99.90
33715;DHT22;20043;50.998;4.754;2022-07-29T07:49:13;24.00;99.90
33715;DHT22;20043;50.998;4.754;2022-07-29T07:51:38;23.70;99.90
33715;DHT22;20043;50.998;4.754;2022-07-29T07:54:04;23.60;99.90
33715;DHT22;20043;50.998;4.754;2022-07-29T07:56:29;23.40;99.90
33715;DHT22;20043;50.998;4.754;2022-07-29T07:58:55;23.40;99.90
33715;DHT22;20043;50.998;4.754;2022-07-29T08:01:20;23.20;99.90
33715;DHT22;20043;50.998;4.754;2022-07-29T08:03:51;23.40;99.90
33715;DHT22;20043;50.998;4.754;2022-07-29T08:06:16;23.60;99.90
33715;DHT22;20043;50.998;4.754;2022-07-29T08:08:42;23.80;99.90
33715;DHT22;20043;50.998;4.754;2022-07-29T08:11:07;23.80;99.90
33715;DHT22;20043;50.998;4.754;2022-07-29T08:13:33;24.00;99.90
33715;DHT22;20043;50.998;4.754;2022-07-29T08:15:59;24.30;99.90
33715;DHT22;20043;50.998;4.754;2022-07-29T08:18:37;24.40;99.90
33715;DHT22;20043;50.998;4.754;2022-07-29T08:21:03;24.50;99.90
33715;DHT22;20043;50.998;4.754;2022-07-29T08:23:29;24.50;99.90
33715;DHT22;20043;50.998;4.754;2022-07-29T08:26:08;24.60;99.80
33715;DHT22;20043;50.998;4.754;2022-07-29T08:28:40;24.60;99.80
33715;DHT22;20043;50.998;4.754;2022-07-29T08:31:06;24.50;99.90
33715;DHT22;20043;50.998;4.754;2022-07-29T08:33:32;24.40;99.90
33715;DHT22;20043;50.998;4.754;2022-07-29T08:35:58;24.60;99.90
33715;DHT22;20043;50.998;4.754;2022-07-29T08:38:24;24.70;99.90
33715;DHT22;20043;50.998;4.754;2022-07-29T08:40:52;24.70;99.90
33715;DHT22;20043;50.998;4.754;2022-07-29T08:43:18;24.90;99.90
33715;DHT22;20043;50.998;4.754;2022-07-29T08:45:45;25.00;99.90
33715;DHT22;20043;50.998;4.754;2022-07-29T08:48:13;24.70;99.80
33715;DHT22;20043;50.998;4.754;2022-07-29T08:50:39;24.60;99.90
33715;DHT22;20043;50.998;4.754;2022-07-29T08:53:10;24.70;99.80
33715;DHT22;20043;50.998;4.754;2022-07-29T08:55:40;25.00;99.80
33715;DHT22;20043;50.998;4.754;2022-07-29T08:58:07;25.30;99.60
33715;DHT22;20043;50.998;4.754;2022-07-29T09:00:34;25.50;99.90
33715;DHT22;20043;50.998;4.754;2022-07-29T09:03:02;25.60;99.10
33715;DHT22;20043;50.998;4.754;2022-07-29T09:05:29;25.80;99.40
33715;DHT22;20043;50.998;4.754;2022-07-29T09:08:02;26.00;99.80
33715;DHT22;20043;50.998;4.754;2022-07-29T09:10:28;26.00;98.20
33715;DHT22;20043;50.998;4.754;2022-07-29T09:12:57;26.00;98.20
33715;DHT22;20043;50.998;4.754;2022-07-29T09:15:23;26.00;98.20
33715;DHT22;20043;50.998;4.754;2022-07-29T09:17:50;26.00;98.20
33715;DHT22;20043;50.998;4.754;2022-07-29T09:20:20;26.10;98.20
33715;DHT22;20043;50.998;4.754;2022-07-29T09:22:46;26.20;98.40
33715;DHT22;20043;50.998;4.754;2022-07-29T09:25:36;26.40;97.80
33715;DHT22;20043;50.998;4.754;2022-07-29T09:28:11;26.50;97.40
33715;DHT22;20043;50.998;4.754;2022-07-29T09:33:15;26.30;97.00
33715;DHT22;20043;50.998;4.754;2022-07-29T09:35:41;26.20;98.10
33715;DHT22;20043;50.998;4.754;2022-07-29T09:38:11;26.40;99.30
33715;DHT22;20043;50.998;4.754;2022-07-29T09:40:56;26.50;97.50
33715;DHT22;20043;50.998;4.754;2022-07-29T09:43:28;26.60;96.60
33715;DHT22;20043;50.998;4.754;2022-07-29T09:45:54;26.80;97.10
33715;DHT22;20043;50.998;4.754;2022-07-29T09:48:24;26.40;96.90
33715;DHT22;20043;50.998;4.754;2022-07-29T09:50:50;26.10;97.50
33715;DHT22;20043;50.998;4.754;2022-07-29T09:53:35;25.80;97.70
33715;DHT22;20043;50.998;4.754;2022-07-29T09:56:03;25.90;98.60
33715;DHT22;20043;50.998;4.754;2022-07-29T09:58:29;25.80;97.70
33715;DHT22;20043;50.998;4.754;2022-07-29T10:00:55;26.00;97.00
33715;DHT22;20043;50.998;4.754;2022-07-29T10:03:22;26.10;96.60
33715;DHT22;20043;50.998;4.754;2022-07-29T10:06:08;26.10;95.80
33715;DHT22;20043;50.998;4.754;2022-07-29T10:08:34;26.20;96.20
33715;DHT22;20043;50.998;4.754;2022-07-29T10:11:12;26.40;97.40
33715;DHT22;20043;50.998;4.754;2022-07-29T10:13:38;26.50;96.80
33715;DHT22;20043;50.998;4.754;2022-07-29T10:16:06;26.40;96.20
33715;DHT22;20043;50.998;4.754;2022-07-29T10:18:32;26.30;95.80
33715;DHT22;20043;50.998;4.754;2022-07-29T10:20:58;26.60;95.90
33715;DHT22;20043;50.998;4.754;2022-07-29T10:23:27;26.60;95.50
33715;DHT22;20043;50.998;4.754;2022-07-29T10:25:53;26.60;95.00
33715;DHT22;20043;50.998;4.754;2022-07-29T10:28:19;26.50;95.20
33715;DHT22;20043;50.998;4.754;2022-07-29T10:30:45;26.50;94.70
33715;DHT22;20043;50.998;4.754;2022-07-29T10:33:35;26.80;96.10
33715;DHT22;20043;50.998;4.754;2022-07-29T10:36:07;27.10;95.80
33715;DHT22;20043;50.998;4.754;2022-07-29T10:44:06;27.40;95.30
33715;DHT22;20043;50.998;4.754;2022-07-29T10:46:38;27.60;94.80
33715;DHT22;20043;50.998;4.754;2022-07-29T10:51:57;27.90;94.10
33715;DHT22;20043;50.998;4.754;2022-07-29T10:57:26;28.00;94.00
33715;DHT22;20043;50.998;4.754;2022-07-29T11:07:22;28.40;93.10
33715;DHT22;20043;50.998;4.754;2022-07-29T11:15:09;28.30;92.30
33715;DHT22;20043;50.998;4.754;2022-07-29T11:26:20;28.30;91.60
33715;DHT22;20043;50.998;4.754;2022-07-29T11:34:21;29.10;90.80
33715;DHT22;20043;50.998;4.754;2022-07-29T11:39:32;29.40;89.10
33715;DHT22;20043;50.998;4.754;2022-07-29T11:45:21;29.40;87.30
33715;DHT22;20043;50.998;4.754;2022-07-29T11:50:26;29.30;86.70
33715;DHT22;20043;50.998;4.754;2022-07-29T11:52:52;29.20;87.60
33715;DHT22;20043;50.998;4.754;2022-07-29T11:55:20;29.20;88.80
33715;DHT22;20043;50.998;4.754;2022-07-29T11:57:54;29.00;89.30
33715;DHT22;20043;50.998;4.754;2022-07-29T12:00:45;28.70;90.50
33715;DHT22;20043;50.998;4.754;2022-07-29T12:03:10;28.80;90.00
33715;DHT22;20043;50.998;4.754;2022-07-29T12:05:44;29.00;88.10
33715;DHT22;20043;50.998;4.754;2022-07-29T12:10:39;28.30;91.00
33715;DHT22;20043;50.998;4.754;2022-07-29T12:13:05;28.50;90.70
33715;DHT22;20043;50.998;4.754;2022-07-29T12:15:39;28.60;90.20
33715;DHT22;20043;50.998;4.754;2022-07-29T12:18:15;28.50;90.40
33715;DHT22;20043;50.998;4.754;2022-07-29T12:20:42;28.50;90.10
33715;DHT22;20043;50.998;4.754;2022-07-29T12:23:09;28.10;90.10
33715;DHT22;20043;50.998;4.754;2022-07-29T12:25:44;28.40;90.20
33715;DHT22;20043;50.998;4.754;2022-07-29T12:28:16;28.70;88.50
33715;DHT22;20043;50.998;4.754;2022-07-29T12:30:48;28.80;90.20
33715;DHT22;20043;50.998;4.754;2022-07-29T12:33:22;29.10;86.70
33715;DHT22;20043;50.998;4.754;2022-07-29T12:35:51;29.20;87.20
33715;DHT22;20043;50.998;4.754;2022-07-29T12:38:18;29.20;84.10
33715;DHT22;20043;50.998;4.754;2022-07-29T12:40:45;29.20;84.60
33715;DHT22;20043;50.998;4.754;2022-07-29T12:43:17;29.10;85.60
33715;DHT22;20043;50.998;4.754;2022-07-29T12:45:54;29.10;86.70
33715;DHT22;20043;50.998;4.754;2022-07-29T12:48:37;29.30;86.50
33715;DHT22;20043;50.998;4.754;2022-07-29T12:51:04;29.60;85.70
33715;DHT22;20043;50.998;4.754;2022-07-29T12:53:32;29.80;84.90
33715;DHT22;20043;50.998;4.754;2022-07-29T12:55:58;29.90;85.90
33715;DHT22;20043;50.998;4.754;2022-07-29T13:01:03;30.60;80.00
33715;DHT22;20043;50.998;4.754;2022-07-29T13:03:41;30.50;82.10
33715;DHT22;20043;50.998;4.754;2022-07-29T13:06:06;29.80;80.80
33715;DHT22;20043;50.998;4.754;2022-07-29T13:08:32;29.60;83.10
33715;DHT22;20043;50.998;4.754;2022-07-29T13:10:57;30.00;83.50
33715;DHT22;20043;50.998;4.754;2022-07-29T13:13:23;30.10;83.00
33715;DHT22;20043;50.998;4.754;2022-07-29T13:16:05;30.00;82.70
33715;DHT22;20043;50.998;4.754;2022-07-29T13:18:33;29.70;84.60
33715;DHT22;20043;50.998;4.754;2022-07-29T13:21:13;29.70;85.10
33715;DHT22;20043;50.998;4.754;2022-07-29T13:23:39;29.50;84.20
33715;DHT22;20043;50.998;4.754;2022-07-29T13:26:09;29.20;84.80
33715;DHT22;20043;50.998;4.754;2022-07-29T13:28:35;29.20;84.50
33715;DHT22;20043;50.998;4.754;2022-07-29T13:31:01;29.00;85.20
33715;DHT22;20043;50.998;4.754;2022-07-29T13:33:27;29.00;87.50
33715;DHT22;20043;50.998;4.754;2022-07-29T13:35:52;29.10;83.90
33715;DHT22;20043;50.998;4.754;2022-07-29T13:38:18;29.20;83.20
33715;DHT22;20043;50.998;4.754;2022-07-29T13:40:44;29.50;82.30
33715;DHT22;20043;50.998;4.754;2022-07-29T13:43:10;29.50;83.80
33715;DHT22;20043;50.998;4.754;2022-07-29T13:45:36;29.70;83.90
33715;DHT22;20043;50.998;4.754;2022-07-29T13:48:02;29.60;83.00
33715;DHT22;20043;50.998;4.754;2022-07-29T13:50:27;29.80;83.00
33715;DHT22;20043;50.998;4.754;2022-07-29T13:52:53;29.90;82.80
33715;DHT22;20043;50.998;4.754;2022-07-29T13:55:19;30.10;80.60
33715;DHT22;20043;50.998;4.754;2022-07-29T13:57:45;30.00;79.20
33715;DHT22;20043;50.998;4.754;2022-07-29T14:00:11;29.50;82.00
33715;DHT22;20043;50.998;4.754;2022-07-29T14:02:37;29.50;81.90
33715;DHT22;20043;50.998;4.754;2022-07-29T14:05:05;29.40;82.80
33715;DHT22;20043;50.998;4.754;2022-07-29T14:07:30;29.40;83.40
33715;DHT22;20043;50.998;4.754;2022-07-29T14:09:56;29.30;84.90
33715;DHT22;20043;50.998;4.754;2022-07-29T14:12:22;29.00;82.90
33715;DHT22;20043;50.998;4.754;2022-07-29T14:14:48;29.00;85.40
33715;DHT22;20043;50.998;4.754;2022-07-29T14:17:14;28.90;84.50
33715;DHT22;20043;50.998;4.754;2022-07-29T14:19:40;28.90;83.20
33715;DHT22;20043;50.998;4.754;2022-07-29T14:22:07;28.90;81.80
33715;DHT22;20043;50.998;4.754;2022-07-29T14:24:33;28.90;83.60
33715;DHT22;20043;50.998;4.754;2022-07-29T14:26:59;28.90;83.20
33715;DHT22;20043;50.998;4.754;2022-07-29T14:29:24;29.00;83.70
33715;DHT22;20043;50.998;4.754;2022-07-29T14:31:50;28.90;83.50
33715;DHT22;20043;50.998;4.754;2022-07-29T14:34:16;28.80;83.90
33715;DHT22;20043;50.998;4.754;2022-07-29T14:36:42;28.70;83.40
33715;DHT22;20043;50.998;4.754;2022-07-29T14:39:07;28.70;85.50
33715;DHT22;20043;50.998;4.754;2022-07-29T14:41:33;28.70;85.10
33715;DHT22;20043;50.998;4.754;2022-07-29T14:43:59;28.80;82.30
33715;DHT22;20043;50.998;4.754;2022-07-29T14:46:27;29.00;84.70
33715;DHT22;20043;50.998;4.754;2022-07-29T14:48:53;29.20;84.90
33715;DHT22;20043;50.998;4.754;2022-07-29T14:51:19;29.20;83.20
33715;DHT22;20043;50.998;4.754;2022-07-29T14:53:45;29.20;83.50
33715;DHT22;20043;50.998;4.754;2022-07-29T14:56:10;29.00;84.70
33715;DHT22;20043;50.998;4.754;2022-07-29T14:58:36;29.00;83.40
33715;DHT22;20043;50.998;4.754;2022-07-29T15:01:02;28.90;85.80
33715;DHT22;20043;50.998;4.754;2022-07-29T15:03:27;28.80;85.20
33715;DHT22;20043;50.998;4.754;2022-07-29T15:05:53;28.90;84.20
33715;DHT22;20043;50.998;4.754;2022-07-29T15:08:19;28.90;89.10
33715;DHT22;20043;50.998;4.754;2022-07-29T15:10:45;29.10;83.40
33715;DHT22;20043;50.998;4.754;2022-07-29T15:13:11;29.30;84.00
33715;DHT22;20043;50.998;4.754;2022-07-29T15:15:36;29.50;83.40
33715;DHT22;20043;50.998;4.754;2022-07-29T15:18:02;29.60;83.60
33715;DHT22;20043;50.998;4.754;2022-07-29T15:20:28;29.50;83.50
33715;DHT22;20043;50.998;4.754;2022-07-29T15:22:54;29.50;83.40
33715;DHT22;20043;50.998;4.754;2022-07-29T15:25:24;29.50;83.00
33715;DHT22;20043;50.998;4.754;2022-07-29T15:27:57;29.50;81.10
33715;DHT22;20043;50.998;4.754;2022-07-29T15:30:25;29.50;83.10
33715;DHT22;20043;50.998;4.754;2022-07-29T15:32:50;29.30;82.40
33715;DHT22;20043;50.998;4.754;2022-07-29T15:35:16;29.20;83.80
33715;DHT22;20043;50.998;4.754;2022-07-29T15:37:41;29.20;83.50
33715;DHT22;20043;50.998;4.754;2022-07-29T15:40:07;29.20;82.40
33715;DHT22;20043;50.998;4.754;2022-07-29T15:42:35;29.30;81.20
33715;DHT22;20043;50.998;4.754;2022-07-29T15:45:01;29.40;77.80
33715;DHT22;20043;50.998;4.754;2022-07-29T15:47:30;29.30;78.70
33715;DHT22;20043;50.998;4.754;2022-07-29T15:49:55;29.30;79.60
33715;DHT22;20043;50.998;4.754;2022-07-29T15:52:21;29.20;77.40
33715;DHT22;20043;50.998;4.754;2022-07-29T15:54:47;29.00;82.20
33715;DHT22;20043;50.998;4.754;2022-07-29T15:57:13;29.00;84.30
33715;DHT22;20043;50.998;4.754;2022-07-29T15:59:38;29.00;82.50
33715;DHT22;20043;50.998;4.754;2022-07-29T16:02:04;29.00;83.00
33715;DHT22;20043;50.998;4.754;2022-07-29T16:04:30;29.10;80.20
33715;DHT22;20043;50.998;4.754;2022-07-29T16:06:56;29.10;80.00
33715;DHT22;20043;50.998;4.754;2022-07-29T16:09:22;29.20;78.80
33715;DHT22;20043;50.998;4.754;2022-07-29T16:11:48;29.30;80.70
33715;DHT22;20043;50.998;4.754;2022-07-29T16:14:16;29.40;78.10
33715;DHT22;20043;50.998;4.754;2022-07-29T16:16:42;29.40;81.50
33715;DHT22;20043;50.998;4.754;2022-07-29T16:19:08;29.30;78.10
33715;DHT22;20043;50.998;4.754;2022-07-29T16:21:35;29.20;79.20
33715;DHT22;20043;50.998;4.754;2022-07-29T16:24:01;29.30;79.30
33715;DHT22;20043;50.998;4.754;2022-07-29T16:26:27;29.40;79.50
33715;DHT22;20043;50.998;4.754;2022-07-29T16:28:53;29.30;79.50
33715;DHT22;20043;50.998;4.754;2022-07-29T16:31:19;29.30;79.10
33715;DHT22;20043;50.998;4.754;2022-07-29T16:33:48;29.20;81.20
33715;DHT22;20043;50.998;4.754;2022-07-29T16:36:14;29.10;77.90
33715;DHT22;20043;50.998;4.754;2022-07-29T16:38:39;29.00;79.10
33715;DHT22;20043;50.998;4.754;2022-07-29T16:41:06;28.90;81.00